Aérodrome :
LOGIN :

S'inscrire | Disclaimer

   EN    FR    IT 

 










Légende :    VFR   VFR Marginal   IFR   IFR Intensif   IFR Très Intensif
Visi : 
Plafond : 
>= 8 km
>= 3000ft
5 à 8 km
1000 à 3000 ft
1500m à 5 km
500 à 1000 ft
800 à 1500m
200 à 500 ft
< 800m
< 200 ft
Symboles :   Orages  Brouillard  Fortes neiges  Fortes précipitations  Vent > 20 kt
SIGMETs :   Divers  Orages  Givrage  Turbulence  Onde Orograph.  Cendres Volcan.







- Altitude de l'aérodrome : 796 ft
- Code IATA : SYT
- Voir les cartes d'approche


LFLN - Saint-Yan

DERNIER METAR :
  • 210430Z AUTO 00000KT CAVOK 07/06 Q1018

METARs EXPIRÉS :
  • 210400Z AUTO 00000KT CAVOK 07/06 Q1019
  • 210330Z AUTO 13003KT CAVOK 07/06 Q1019
  • 210300Z AUTO 00000KT CAVOK 08/07 Q1019
  • 210230Z AUTO 16002KT CAVOK 07/06 Q1019
  • 210200Z AUTO 13003KT CAVOK 07/06 Q1019

Prévision TAF périmée.
Pas de NOTAMs connus pour ce terrain.
2 SIGMETs publiés pour la FIR Marseille (LFMM) :
 
Orages noyés dans la masse
LFMM SIGMET 2 VALID 210330/210500 LFPW
LFMM MARSEILLE FIR/UIR EMBD TS OBS WI N4000 E00445 - N4015 E00445 - N4015 E00515 - N4000 E00515 - N4000 E00445 TOP FL300 MOV N 15KT NC=
Turbulence forte
LFMM SIGMET 1 VALID 210230/210600 LFPW
LFMM MARSEILLE FIR/UIR SEV TURB FCST WI N4300 E00945 - N4115 E00945 - N4115 E00800 - N3900 E00800 - N3900 E00700 - N4315 E00530 - N4345 E00715 - N4300 E00945 SFC/FL080 STNR NC=



MET'MAP, la Météo Aéronautique d'un coup d'oeil ! - Copyright ORBIFLY Décembre 2007 - Disclaimer

ORBIFLY MET'MAP TEAM :

Programmation & Développement : Alexandra Zaïnal
Conception & Développement : Baudouin d'Aumeries
Co-Programmation & Développement : Marc-Olivier Méhu
Soutien technique & logistique : Manuel Goepfert

Contact : metmap@orbifly.com




SOURCES & CREDITS :

   NOAA